sensor_id;sensor_type;location;lat;lon;timestamp;pressure;altitude;pressure_sealevel;temperature;humidity
55077;BME280;40971;44.702;11.030;2023-09-07T00:07:10;101869.09;;;17.44;80.84
55077;BME280;40971;44.702;11.030;2023-09-07T00:17:12;101857.72;;;17.13;82.43
55077;BME280;40971;44.702;11.030;2023-09-07T00:27:14;101872.00;;;16.50;84.68
55077;BME280;40971;44.702;11.030;2023-09-07T00:37:16;101883.94;;;16.62;85.43
55077;BME280;40971;44.702;11.030;2023-09-07T00:47:18;101882.66;;;16.42;84.84
55077;BME280;40971;44.702;11.030;2023-09-07T00:57:24;101868.44;;;16.74;84.44
55077;BME280;40971;44.702;11.030;2023-09-07T01:07:37;101859.19;;;16.93;83.55
55077;BME280;40971;44.702;11.030;2023-09-07T01:17:43;101868.06;;;17.08;83.25
55077;BME280;40971;44.702;11.030;2023-09-07T01:27:46;101860.91;;;17.08;82.87
55077;BME280;40971;44.702;11.030;2023-09-07T01:37:49;101851.75;;;17.11;82.25
55077;BME280;40971;44.702;11.030;2023-09-07T01:47:51;101862.78;;;16.77;83.40
55077;BME280;40971;44.702;11.030;2023-09-07T01:57:56;101852.25;;;16.83;83.28
55077;BME280;40971;44.702;11.030;2023-09-07T02:07:58;101853.78;;;16.86;83.02
55077;BME280;40971;44.702;11.030;2023-09-07T02:18:02;101851.56;;;16.89;83.43
55077;BME280;40971;44.702;11.030;2023-09-07T02:28:06;101857.53;;;16.69;82.99
55077;BME280;40971;44.702;11.030;2023-09-07T02:38:08;101853.44;;;16.50;84.12
55077;BME280;40971;44.702;11.030;2023-09-07T02:48:10;101860.53;;;16.66;85.08
55077;BME280;40971;44.702;11.030;2023-09-07T02:58:12;101863.91;;;16.52;84.49
55077;BME280;40971;44.702;11.030;2023-09-07T03:08:14;101862.50;;;16.64;84.63
55077;BME280;40971;44.702;11.030;2023-09-07T03:18:17;101859.84;;;16.64;84.36
55077;BME280;40971;44.702;11.030;2023-09-07T03:28:19;101859.00;;;16.71;84.16
55077;BME280;40971;44.702;11.030;2023-09-07T03:38:21;101877.25;;;16.74;83.92
55077;BME280;40971;44.702;11.030;2023-09-07T03:48:23;101883.53;;;16.73;83.65
55077;BME280;40971;44.702;11.030;2023-09-07T03:58:24;101884.81;;;16.47;83.94
55077;BME280;40971;44.702;11.030;2023-09-07T04:08:26;101885.28;;;16.50;84.22
55077;BME280;40971;44.702;11.030;2023-09-07T04:18:31;101886.13;;;16.51;84.07
55077;BME280;40971;44.702;11.030;2023-09-07T04:28:33;101893.28;;;16.42;84.19
55077;BME280;40971;44.702;11.030;2023-09-07T04:38:38;101899.28;;;16.44;84.18
55077;BME280;40971;44.702;11.030;2023-09-07T04:48:41;101898.63;;;16.34;84.62
55077;BME280;40971;44.702;11.030;2023-09-07T04:58:43;101905.38;;;16.45;84.41
55077;BME280;40971;44.702;11.030;2023-09-07T05:08:46;101903.88;;;16.50;84.31
55077;BME280;40971;44.702;11.030;2023-09-07T05:18:48;101908.19;;;16.51;84.08
55077;BME280;40971;44.702;11.030;2023-09-07T05:28:49;101914.47;;;16.58;84.62
55077;BME280;40971;44.702;11.030;2023-09-07T05:38:52;101934.59;;;16.83;84.12
55077;BME280;40971;44.702;11.030;2023-09-07T05:48:54;101937.50;;;17.05;83.90
55077;BME280;40971;44.702;11.030;2023-09-07T05:58:59;101933.53;;;17.23;83.92
55077;BME280;40971;44.702;11.030;2023-09-07T06:09:04;101935.00;;;17.48;83.21
55077;BME280;40971;44.702;11.030;2023-09-07T06:19:06;101945.50;;;17.87;81.68
55077;BME280;40971;44.702;11.030;2023-09-07T06:29:09;101946.75;;;18.29;79.80
55077;BME280;40971;44.702;11.030;2023-09-07T06:39:14;101945.94;;;18.72;77.89
55077;BME280;40971;44.702;11.030;2023-09-07T06:49:19;101948.06;;;19.34;75.15
55077;BME280;40971;44.702;11.030;2023-09-07T06:59:22;101948.16;;;20.51;71.17
55077;BME280;40971;44.702;11.030;2023-09-07T07:09:27;101957.34;;;21.96;65.95
55077;BME280;40971;44.702;11.030;2023-09-07T07:19:32;101951.19;;;23.17;62.11
55077;BME280;40971;44.702;11.030;2023-09-07T07:29:35;101963.69;;;24.10;59.20
55077;BME280;40971;44.702;11.030;2023-09-07T07:39:37;101961.66;;;25.15;55.34
55077;BME280;40971;44.702;11.030;2023-09-07T07:49:39;101971.13;;;25.47;52.15
55077;BME280;40971;44.702;11.030;2023-09-07T07:59:40;101963.22;;;25.98;51.63
55077;BME280;40971;44.702;11.030;2023-09-07T08:09:45;101956.03;;;26.50;48.48
55077;BME280;40971;44.702;11.030;2023-09-07T08:19:47;101971.69;;;26.77;48.88
55077;BME280;40971;44.702;11.030;2023-09-07T08:29:50;101955.66;;;27.27;47.31
55077;BME280;40971;44.702;11.030;2023-09-07T08:39:56;101953.41;;;27.52;46.78
55077;BME280;40971;44.702;11.030;2023-09-07T08:49:59;101955.13;;;27.13;48.13
55077;BME280;40971;44.702;11.030;2023-09-07T09:00:03;101942.59;;;26.79;48.08
55077;BME280;40971;44.702;11.030;2023-09-07T09:10:10;101946.88;;;26.91;48.10
55077;BME280;40971;44.702;11.030;2023-09-07T09:20:25;101946.25;;;27.79;46.77
55077;BME280;40971;44.702;11.030;2023-09-07T09:30:30;101945.22;;;27.47;46.52
55077;BME280;40971;44.702;11.030;2023-09-07T09:40:34;101948.97;;;27.01;48.32
55077;BME280;40971;44.702;11.030;2023-09-07T09:50:40;101940.22;;;27.72;45.59
55077;BME280;40971;44.702;11.030;2023-09-07T10:00:43;101924.47;;;27.36;46.07
55077;BME280;40971;44.702;11.030;2023-09-07T10:10:52;101902.41;;;28.10;45.51
55077;BME280;40971;44.702;11.030;2023-09-07T10:20:58;101905.66;;;27.74;46.63
55077;BME280;40971;44.702;11.030;2023-09-07T10:31:05;101894.28;;;28.54;45.14
55077;BME280;40971;44.702;11.030;2023-09-07T10:41:07;101873.31;;;29.19;42.99
55077;BME280;40971;44.702;11.030;2023-09-07T10:51:08;101869.06;;;28.70;43.35
55077;BME280;40971;44.702;11.030;2023-09-07T11:01:10;101866.16;;;29.08;40.10
55077;BME280;40971;44.702;11.030;2023-09-07T11:11:12;101843.41;;;29.83;38.21
55077;BME280;40971;44.702;11.030;2023-09-07T11:21:14;101841.66;;;30.14;36.51
55077;BME280;40971;44.702;11.030;2023-09-07T11:31:19;101823.22;;;29.59;36.35
55077;BME280;40971;44.702;11.030;2023-09-07T11:41:22;101806.66;;;30.12;36.90
55077;BME280;40971;44.702;11.030;2023-09-07T11:51:24;101806.66;;;29.55;36.23
55077;BME280;40971;44.702;11.030;2023-09-07T12:01:25;101803.19;;;30.32;36.98
55077;BME280;40971;44.702;11.030;2023-09-07T12:11:29;101795.91;;;29.75;35.74
55077;BME280;40971;44.702;11.030;2023-09-07T12:21:32;101787.50;;;30.44;36.39
55077;BME280;40971;44.702;11.030;2023-09-07T12:31:33;101773.66;;;30.55;35.72
55077;BME280;40971;44.702;11.030;2023-09-07T12:41:34;101744.34;;;30.68;35.47
55077;BME280;40971;44.702;11.030;2023-09-07T12:51:36;101752.47;;;31.08;35.97
55077;BME280;40971;44.702;11.030;2023-09-07T13:01:37;101745.44;;;30.41;35.55
55077;BME280;40971;44.702;11.030;2023-09-07T13:11:39;101746.75;;;29.57;38.34
55077;BME280;40971;44.702;11.030;2023-09-07T13:21:42;101732.84;;;30.10;35.63
55077;BME280;40971;44.702;11.030;2023-09-07T13:31:43;101718.81;;;30.69;34.27
55077;BME280;40971;44.702;11.030;2023-09-07T13:41:45;101713.13;;;30.95;33.65
55077;BME280;40971;44.702;11.030;2023-09-07T13:51:46;101715.03;;;30.49;33.81
55077;BME280;40971;44.702;11.030;2023-09-07T14:01:47;101704.69;;;31.07;31.98
55077;BME280;40971;44.702;11.030;2023-09-07T14:11:49;101707.88;;;31.24;31.90
55077;BME280;40971;44.702;11.030;2023-09-07T14:21:53;101704.69;;;30.92;31.76
55077;BME280;40971;44.702;11.030;2023-09-07T14:31:54;101692.06;;;31.41;31.54
55077;BME280;40971;44.702;11.030;2023-09-07T14:41:58;101698.72;;;30.70;32.04
55077;BME280;40971;44.702;11.030;2023-09-07T14:52:01;101671.03;;;30.73;32.05
55077;BME280;40971;44.702;11.030;2023-09-07T15:02:02;101666.66;;;30.77;31.84
55077;BME280;40971;44.702;11.030;2023-09-07T15:12:03;101678.66;;;30.40;31.95
55077;BME280;40971;44.702;11.030;2023-09-07T15:22:06;101661.81;;;30.43;31.86
55077;BME280;40971;44.702;11.030;2023-09-07T15:32:09;101668.09;;;30.54;32.94
55077;BME280;40971;44.702;11.030;2023-09-07T15:42:11;101672.25;;;29.69;33.62
55077;BME280;40971;44.702;11.030;2023-09-07T15:52:13;101661.75;;;29.93;33.58
55077;BME280;40971;44.702;11.030;2023-09-07T16:02:15;101671.03;;;30.32;32.74
55077;BME280;40971;44.702;11.030;2023-09-07T16:12:16;101659.16;;;29.46;33.76
55077;BME280;40971;44.702;11.030;2023-09-07T16:22:17;101658.03;;;29.32;33.99
55077;BME280;40971;44.702;11.030;2023-09-07T16:32:20;101658.56;;;28.87;34.78
55077;BME280;40971;44.702;11.030;2023-09-07T16:42:22;101665.78;;;28.40;36.29
55077;BME280;40971;44.702;11.030;2023-09-07T16:52:25;101670.41;;;28.12;37.47
55077;BME280;40971;44.702;11.030;2023-09-07T17:02:29;101661.63;;;27.52;37.99
55077;BME280;40971;44.702;11.030;2023-09-07T17:12:30;101661.50;;;27.03;39.19
55077;BME280;40971;44.702;11.030;2023-09-07T17:22:32;101670.09;;;26.34;37.92
55077;BME280;40971;44.702;11.030;2023-09-07T17:32:33;101678.31;;;25.82;39.60
55077;BME280;40971;44.702;11.030;2023-09-07T17:42:34;101681.09;;;25.36;41.29
55077;BME280;40971;44.702;11.030;2023-09-07T17:52:35;101690.38;;;24.94;42.45
55077;BME280;40971;44.702;11.030;2023-09-07T18:02:39;101696.84;;;24.51;43.44
55077;BME280;40971;44.702;11.030;2023-09-07T18:12:42;101722.09;;;23.91;49.02
55077;BME280;40971;44.702;11.030;2023-09-07T18:22:44;101741.13;;;23.10;52.21
55077;BME280;40971;44.702;11.030;2023-09-07T18:32:46;101732.97;;;22.42;53.76
55077;BME280;40971;44.702;11.030;2023-09-07T18:42:48;101744.13;;;22.39;52.93
55077;BME280;40971;44.702;11.030;2023-09-07T18:52:52;101761.28;;;21.94;57.35
55077;BME280;40971;44.702;11.030;2023-09-07T19:02:55;101758.50;;;21.43;62.41
55077;BME280;40971;44.702;11.030;2023-09-07T19:12:56;101759.31;;;20.78;64.14
55077;BME280;40971;44.702;11.030;2023-09-07T19:23:00;101755.13;;;20.36;66.77
55077;BME280;40971;44.702;11.030;2023-09-07T19:33:06;101773.44;;;19.92;68.55
55077;BME280;40971;44.702;11.030;2023-09-07T19:43:09;101789.16;;;19.73;69.66
55077;BME280;40971;44.702;11.030;2023-09-07T19:53:10;101799.97;;;19.38;71.52
55077;BME280;40971;44.702;11.030;2023-09-07T20:03:12;101817.91;;;19.23;71.96
55077;BME280;40971;44.702;11.030;2023-09-07T20:13:13;101808.50;;;19.54;69.59
55077;BME280;40971;44.702;11.030;2023-09-07T20:23:15;101808.19;;;19.64;69.41
55077;BME280;40971;44.702;11.030;2023-09-07T20:33:18;101812.25;;;19.60;69.84
55077;BME280;40971;44.702;11.030;2023-09-07T20:43:19;101807.59;;;19.41;70.77
55077;BME280;40971;44.702;11.030;2023-09-07T20:53:24;101807.19;;;18.74;73.87
55077;BME280;40971;44.702;11.030;2023-09-07T21:03:27;101812.22;;;18.83;73.99
55077;BME280;40971;44.702;11.030;2023-09-07T21:13:28;101801.53;;;18.62;73.36
55077;BME280;40971;44.702;11.030;2023-09-07T21:23:29;101806.72;;;18.49;74.15
55077;BME280;40971;44.702;11.030;2023-09-07T21:33:31;101810.75;;;17.80;77.04
55077;BME280;40971;44.702;11.030;2023-09-07T21:43:33;101818.72;;;17.65;76.93
55077;BME280;40971;44.702;11.030;2023-09-07T21:53:38;101826.97;;;17.85;76.62
55077;BME280;40971;44.702;11.030;2023-09-07T22:03:40;101829.13;;;17.52;78.42
55077;BME280;40971;44.702;11.030;2023-09-07T22:13:41;101832.75;;;17.36;79.51
55077;BME280;40971;44.702;11.030;2023-09-07T22:23:45;101828.13;;;17.16;80.47
55077;BME280;40971;44.702;11.030;2023-09-07T22:33:46;101821.69;;;17.47;79.53
55077;BME280;40971;44.702;11.030;2023-09-07T22:43:47;101835.16;;;17.69;78.70
55077;BME280;40971;44.702;11.030;2023-09-07T22:53:49;101843.16;;;17.46;79.19
55077;BME280;40971;44.702;11.030;2023-09-07T23:03:51;101835.22;;;17.61;78.23
55077;BME280;40971;44.702;11.030;2023-09-07T23:13:53;101841.00;;;17.27;80.31
55077;BME280;40971;44.702;11.030;2023-09-07T23:23:54;101832.75;;;17.22;80.87
55077;BME280;40971;44.702;11.030;2023-09-07T23:33:55;101834.22;;;17.24;80.92
55077;BME280;40971;44.702;11.030;2023-09-07T23:43:57;101859.41;;;17.28;81.51
55077;BME280;40971;44.702;11.030;2023-09-07T23:53:58;101846.00;;;17.44;79.98
